Avery, ID

9:39 PM PDT on September 02, 2014 (GMT -0700)
ITD Lookout Pass ID US | Change Station
CLOSE
Current Station
Personal Weather Station
Location: Mullan, ID
Elevation: 4525 ft
Nearby Weather Stations

Elev 4525 ft 47.46 °N, 115.69 °W | Updated 54 minutes ago

Partly Cloudy
Partly Cloudy
59 °F
Feels Like 59 °F
N
1
Wind Variable Wind from SW
Gusts 2.0 mph

Today
High -- | Low -- °F
--% Chance of Precip.
Yesterday
High -- | Low -- °F
Precip. -- in
6:03 AM 7:21 PM
First Quarter, 58% visible
Pressure 29.64 in
Visibility 10.0 miles
Clouds Clear
Dew Point 34 °F
Humidity 39%
Rainfall 0.00 in
Snow Depth 0 in , 0 in
UV 0 out of 12
Pollen 6.90 out of 12
Air Quality Not available.
Flu Activity Not available.
METAR KCOE 030435Z AUTO 20005KT 10SM CLR 18/06 A2964 RMK AO1

More Conditions Fewer Conditions

Pressure 29.64 in
Visibility 10.0 miles
Clouds Clear
Dew Point 34 °F
Humidity 39%
Rainfall 0.00 in
Snow Depth 0 in , 0 in
UV 0 out of 12
Pollen 6.90 out of 12
Air Quality Not available.
Flu Activity Not available.
METAR KCOE 030435Z AUTO 20005KT 10SM CLR 18/06 A2964 RMK AO1

More Conditions Fewer Conditions

10-Day Weather Forecast

Almanac

Astronomy

Sep. 02, 2014 Rise Set
Actual Time 6:03 AM PDT 7:21 PM PDT
Civil Twilight 5:32 AM PDT 7:52 PM PDT
Nautical Twilight 4:54 AM PDT 8:30 PM PDT
Astronomical Twilight 4:13 AM PDT 9:11 PM PDT
Moon 2:20 PM PDT (9/2) 11:50 PM PDT (9/2)
Length of Visible Light 14h 20m
Length of Day
13h 17m
Tomorrow will be 3m 16s shorter.
First Quarter, 58% of the Moon is Illuminated
Sep 3
First Quarter
Sep 8
Full
Sep 15
Last Quarter
Sep 24
New
Oct 1
First Quarter

Yesterday's Extremes

State Highs State Lows

Community

WunderPhotos

Upload Photos

1,749,870 photos uploaded!

Nearby

Snow Depth

Station Depth Elevation
Lost Lake 0 in 6110 ft
Lookout 0 in 5140 ft
Humboldt Gulch 1 in 4250 ft
Mica Creek 0 in 4750 ft
Sunset 0 in 5540 ft

Earthquake Activity

City Distance Mag. Time & Date
Mullan, Idaho 16 miles 2.5 1:01 AM PDT
2014-08-31
Minimum magnitude displayed is 2.5.

Coastal Water Temperatures

Place Temperature
No Stations Reporting

Nearby Weather Stations